Terminal Aerodrome Forecast
Issued by NWS

Current Version | Previous Version | Graphics & Text | Print | Product List | Glossary On
Versions: 1 2 3 4 5 6 7 8 9 10 11 12 13 14 15 16 17 18 19 20 21 22
000
FTUS41 KILN 080500 RRA
TAFLUK
TAF
KLUK 080541Z 0806/0906 VRB03KT P6SM SCT040 BKN200
     FM081200 20012G20KT 5SM -SHRA BR VCTS OVC035CB
     FM081500 23012G24KT P6SM BKN035
     FM081800 24014G26KT P6SM VCTS BKN035CB
     FM090000 26004KT P6SM BKN040=

USA.gov is the U.S. government's official web portal to all federal, state and local government web resources and services.